Time;durP1;ratioP1;P1;durP2;ratioP2;P2;SDS_P1;SDS_P2;PMS_P1;PMS_P2;Temp;Humidity;BMP_temperature;BMP_pressure;BME280_temperature;BME280_humidity;BME280_pressure;Samples;Min_cycle;Max_cycle;Signal;HPM_P1;HPM_P2
2023/01/09 00:02:18;;;;;;;3.93;2.00;;;;;;;;;;6242352;22;20147;-72
2023/01/09 00:04:43;;;;;;;6.00;2.50;;;;;;;;;;6237904;23;20844;-72
2023/01/09 00:07:08;;;;;;;3.00;1.93;;;;;;;;;;6237580;23;20493;-72
2023/01/09 00:09:33;;;;;;;3.40;1.83;;;;;;;;;;6236891;22;20880;-72
2023/01/09 00:11:59;;;;;;;4.10;1.90;;;;;;;;;;6238465;22;20981;-72
2023/01/09 00:14:24;;;;;;;2.87;1.70;;;;;;;;;;6237646;22;20186;-72
2023/01/09 00:16:49;;;;;;;5.13;2.00;;;;;;;;;;6238476;22;20148;-72
2023/01/09 00:19:15;;;;;;;5.30;1.70;;;;;;;;;;6238393;23;20147;-72
2023/01/09 00:21:40;;;;;;;3.10;1.83;;;;;;;;;;6238012;22;20526;-72
2023/01/09 00:24:06;;;;;;;3.00;2.10;;;;;;;;;;6235958;23;20152;-72
2023/01/09 00:26:31;;;;;;;2.80;1.80;;;;;;;;;;6236748;23;20158;-72
2023/01/09 00:28:57;;;;;;;2.10;1.60;;;;;;;;;;6238056;22;20182;-72
2023/01/09 00:31:22;;;;;;;4.40;1.73;;;;;;;;;;6236182;22;20172;-72
2023/01/09 00:33:51;;;;;;;4.40;1.60;;;;;;;;;;6240203;22;20147;-72
2023/01/09 00:36:16;;;;;;;5.27;1.90;;;;;;;;;;6239542;22;20497;-72
2023/01/09 00:38:42;;;;;;;3.30;1.50;;;;;;;;;;6237666;22;20358;-72
2023/01/09 00:41:10;;;;;;;1.90;1.50;;;;;;;;;;6240939;22;20611;-72
2023/01/09 00:43:39;;;;;;;3.53;2.10;;;;;;;;;;6239862;22;20147;-72
2023/01/09 00:46:05;;;;;;;2.77;1.53;;;;;;;;;;6240932;22;20852;-72
2023/01/09 00:48:31;;;;;;;2.73;1.90;;;;;;;;;;6240877;22;20471;-72
2023/01/09 00:50:57;;;;;;;4.30;2.30;;;;;;;;;;6239758;22;20426;-72
2023/01/09 00:53:24;;;;;;;3.20;1.47;;;;;;;;;;6240034;22;20762;-72
2023/01/09 00:55:50;;;;;;;3.23;1.40;;;;;;;;;;6240048;23;20450;-72
2023/01/09 00:58:16;;;;;;;3.43;1.93;;;;;;;;;;6241591;22;20394;-72
2023/01/09 01:00:41;;;;;;;2.97;1.70;;;;;;;;;;6241398;22;20386;-72
2023/01/09 01:03:06;;;;;;;6.00;2.00;;;;;;;;;;6240055;22;20238;-72
2023/01/09 01:08:17;;;;;;;1.63;1.10;;;;;;;;;;6240371;23;20202;-72
2023/01/09 01:10:43;;;;;;;3.33;1.10;;;;;;;;;;6239397;22;20398;-72
2023/01/09 01:13:08;;;;;;;1.63;1.40;;;;;;;;;;6237657;22;21008;-72
2023/01/09 01:15:33;;;;;;;1.77;1.13;;;;;;;;;;6239735;23;20369;-72
2023/01/09 01:17:59;;;;;;;3.53;1.50;;;;;;;;;;6241152;22;20276;-72
2023/01/09 01:20:24;;;;;;;4.27;1.40;;;;;;;;;;6237455;22;20217;-72
2023/01/09 01:22:52;;;;;;;4.00;1.83;;;;;;;;;;6237256;22;20147;-72
2023/01/09 01:25:17;;;;;;;3.80;1.43;;;;;;;;;;6239855;23;20159;-72
2023/01/09 01:27:43;;;;;;;1.43;1.03;;;;;;;;;;6234986;23;20816;-72
2023/01/09 01:30:10;;;;;;;4.27;1.50;;;;;;;;;;6238040;22;20217;-72
2023/01/09 01:32:35;;;;;;;4.30;1.73;;;;;;;;;;6239838;22;20143;-72
2023/01/09 01:35:03;;;;;;;1.47;1.17;;;;;;;;;;6239750;22;20711;-72
2023/01/09 01:37:31;;;;;;;2.40;1.00;;;;;;;;;;6238227;22;20167;-72
2023/01/09 01:39:56;;;;;;;3.53;1.20;;;;;;;;;;6237366;22;20409;-72
2023/01/09 01:42:22;;;;;;;3.80;1.20;;;;;;;;;;6238999;22;20392;-72
2023/01/09 01:44:56;;;;;;;9.03;1.00;;;;;;;;;;6239100;22;20157;-72
2023/01/09 01:47:22;;;;;;;2.70;1.00;;;;;;;;;;6239475;22;20167;-72
2023/01/09 01:49:48;;;;;;;3.93;1.00;;;;;;;;;;6238019;22;20371;-72
2023/01/09 01:52:14;;;;;;;1.53;0.87;;;;;;;;;;6237310;23;20427;-72
2023/01/09 01:54:39;;;;;;;2.50;0.90;;;;;;;;;;6233914;23;20644;-72
2023/01/09 01:57:04;;;;;;;1.80;0.80;;;;;;;;;;6240831;23;20370;-72
2023/01/09 01:59:41;;;;;;;2.27;1.00;;;;;;;;;;6241576;22;20249;-72
2023/01/09 02:02:06;;;;;;;2.00;0.83;;;;;;;;;;6239036;22;20178;-72
2023/01/09 02:04:33;;;;;;;3.00;0.93;;;;;;;;;;6240112;23;20389;-72
2023/01/09 02:06:59;;;;;;;1.77;0.97;;;;;;;;;;6237912;23;20182;-72
2023/01/09 02:09:25;;;;;;;5.00;1.10;;;;;;;;;;6238906;23;20413;-72
2023/01/09 02:11:51;;;;;;;3.23;0.80;;;;;;;;;;6239409;22;20884;-72
2023/01/09 02:14:18;;;;;;;2.67;0.93;;;;;;;;;;6238168;23;20771;-72
2023/01/09 02:16:46;;;;;;;2.90;0.73;;;;;;;;;;6241238;22;20358;-72
2023/01/09 02:19:21;;;;;;;6.70;0.90;;;;;;;;;;6240580;23;20921;-72
2023/01/09 02:21:50;;;;;;;1.60;0.80;;;;;;;;;;6239050;22;20389;-72
2023/01/09 02:24:24;;;;;;;1.47;1.03;;;;;;;;;;6240605;22;20710;-72
2023/01/09 02:26:58;;;;;;;1.90;1.10;;;;;;;;;;6240842;23;20406;-72
2023/01/09 02:29:23;;;;;;;3.73;1.87;;;;;;;;;;6240419;23;20377;-72
2023/01/09 02:31:55;;;;;;;2.67;1.40;;;;;;;;;;6238315;22;20390;-72
2023/01/09 02:34:23;;;;;;;3.33;1.30;;;;;;;;;;6237224;22;20250;-72
2023/01/09 02:36:48;;;;;;;2.20;1.20;;;;;;;;;;6238318;22;20849;-72
2023/01/09 02:39:19;;;;;;;2.40;1.00;;;;;;;;;;6239480;23;20358;-72
2023/01/09 02:41:49;;;;;;;1.23;0.90;;;;;;;;;;6237696;22;20174;-72
2023/01/09 02:44:14;;;;;;;2.60;0.87;;;;;;;;;;6238126;23;20404;-72
2023/01/09 02:46:39;;;;;;;1.80;1.07;;;;;;;;;;6240329;22;20362;-72
2023/01/09 02:49:05;;;;;;;2.60;1.20;;;;;;;;;;6237095;23;20639;-72
2023/01/09 02:51:49;;;;;;;1.70;1.13;;;;;;;;;;6238058;22;20174;-72
2023/01/09 02:54:20;;;;;;;1.50;1.17;;;;;;;;;;6209491;23;20210;-74
2023/01/09 02:57:04;;;;;;;1.53;1.20;;;;;;;;;;6209230;23;20427;-74
2023/01/09 02:59:36;;;;;;;2.07;1.30;;;;;;;;;;6210650;23;20385;-74
2023/01/09 03:02:28;;;;;;;2.10;1.10;;;;;;;;;;6211067;23;20370;-73
2023/01/09 03:05:17;;;;;;;2.63;1.33;;;;;;;;;;6205091;23;20694;-74
2023/01/09 03:07:47;;;;;;;4.93;1.63;;;;;;;;;;6183016;23;20414;-74
2023/01/09 03:10:18;;;;;;;2.90;1.50;;;;;;;;;;6210494;23;20425;-74
2023/01/09 03:12:45;;;;;;;2.83;1.73;;;;;;;;;;6207955;23;20386;-73
2023/01/09 03:15:12;;;;;;;4.47;1.37;;;;;;;;;;6179787;23;20390;-74
2023/01/09 03:17:40;;;;;;;2.93;1.60;;;;;;;;;;6209018;23;20385;-73
2023/01/09 03:20:07;;;;;;;4.50;1.90;;;;;;;;;;6181797;23;20387;-73
2023/01/09 03:22:33;;;;;;;2.43;1.63;;;;;;;;;;6183195;23;20896;-74
2023/01/09 03:24:58;;;;;;;2.90;1.63;;;;;;;;;;6209726;23;20375;-74
2023/01/09 03:27:23;;;;;;;5.63;1.70;;;;;;;;;;6206835;23;20251;-73
2023/01/09 03:29:50;;;;;;;1.43;1.10;;;;;;;;;;6209014;23;20837;-74
2023/01/09 03:32:15;;;;;;;3.13;1.60;;;;;;;;;;6182391;23;20773;-72
2023/01/09 03:34:40;;;;;;;2.80;1.33;;;;;;;;;;6182695;23;20405;-73
2023/01/09 03:37:05;;;;;;;3.03;1.47;;;;;;;;;;6210216;23;20147;-73
2023/01/09 03:39:31;;;;;;;3.40;1.70;;;;;;;;;;6209682;23;20176;-73
2023/01/09 03:41:56;;;;;;;2.83;1.40;;;;;;;;;;6206831;23;20148;-73
2023/01/09 03:44:21;;;;;;;2.37;1.53;;;;;;;;;;6210168;23;20931;-73
2023/01/09 03:46:49;;;;;;;2.27;1.10;;;;;;;;;;6207476;23;20182;-73
2023/01/09 03:49:14;;;;;;;1.87;1.10;;;;;;;;;;6208460;23;20219;-73
2023/01/09 03:51:39;;;;;;;6.83;2.07;;;;;;;;;;6206853;23;20457;-73
2023/01/09 03:54:04;;;;;;;5.33;1.27;;;;;;;;;;6207629;23;20203;-73
2023/01/09 03:56:30;;;;;;;3.63;1.57;;;;;;;;;;6182150;23;20529;-74
2023/01/09 03:58:55;;;;;;;3.83;1.37;;;;;;;;;;6208654;23;20230;-74
2023/01/09 04:01:20;;;;;;;4.63;1.50;;;;;;;;;;6210120;23;20174;-73
2023/01/09 04:03:45;;;;;;;5.80;1.40;;;;;;;;;;6182654;23;20559;-73
2023/01/09 04:06:11;;;;;;;3.63;1.70;;;;;;;;;;6208758;23;20152;-73
2023/01/09 04:08:36;;;;;;;5.50;1.73;;;;;;;;;;6204903;23;20214;-74
2023/01/09 04:11:01;;;;;;;2.50;1.53;;;;;;;;;;6206725;23;20148;-74
2023/01/09 04:13:26;;;;;;;5.20;1.40;;;;;;;;;;6209784;23;20247;-75
2023/01/09 04:15:52;;;;;;;2.40;1.10;;;;;;;;;;6205423;23;20168;-74
2023/01/09 04:18:17;;;;;;;3.20;1.43;;;;;;;;;;6210058;23;20587;-74
2023/01/09 04:20:45;;;;;;;2.90;1.50;;;;;;;;;;6202039;23;20231;-74
2023/01/09 04:23:10;;;;;;;2.17;1.40;;;;;;;;;;6209564;23;20174;-74
2023/01/09 04:25:36;;;;;;;2.97;1.60;;;;;;;;;;6209089;23;20362;-74
2023/01/09 04:28:01;;;;;;;4.03;1.90;;;;;;;;;;6209529;23;20195;-73
2023/01/09 04:30:26;;;;;;;4.10;1.40;;;;;;;;;;6182989;23;20148;-74
2023/01/09 04:32:51;;;;;;;4.90;1.80;;;;;;;;;;6208267;23;20164;-74
2023/01/09 04:35:17;;;;;;;3.47;2.00;;;;;;;;;;6181610;23;20155;-74
2023/01/09 04:37:42;;;;;;;5.90;2.23;;;;;;;;;;6206549;23;20154;-73
2023/01/09 04:40:09;;;;;;;4.90;2.03;;;;;;;;;;6208321;23;20621;-73
2023/01/09 04:42:34;;;;;;;2.57;1.90;;;;;;;;;;6181226;23;20159;-73
2023/01/09 04:44:59;;;;;;;7.93;1.70;;;;;;;;;;6181560;23;20848;-73
2023/01/09 04:47:25;;;;;;;5.00;1.93;;;;;;;;;;6204081;23;20167;-73
2023/01/09 04:49:50;;;;;;;7.57;2.50;;;;;;;;;;6177442;23;20231;-73
2023/01/09 04:52:16;;;;;;;5.10;2.10;;;;;;;;;;6181332;23;20152;-74
2023/01/09 04:54:41;;;;;;;9.03;3.00;;;;;;;;;;6177555;23;21027;-73
2023/01/09 04:57:06;;;;;;;5.80;2.10;;;;;;;;;;6207639;23;20148;-73
2023/01/09 04:59:31;;;;;;;6.23;2.20;;;;;;;;;;6206376;23;20148;-73
2023/01/09 05:01:58;;;;;;;9.00;2.77;;;;;;;;;;6180453;23;20182;-73
2023/01/09 05:04:23;;;;;;;5.10;2.00;;;;;;;;;;6180156;23;20181;-73
2023/01/09 05:06:48;;;;;;;9.13;2.40;;;;;;;;;;6181845;23;20383;-73
2023/01/09 05:09:14;;;;;;;5.70;2.60;;;;;;;;;;6206975;23;20222;-73
2023/01/09 05:11:39;;;;;;;10.00;2.70;;;;;;;;;;6208942;23;20155;-73
2023/01/09 05:14:04;;;;;;;6.73;2.63;;;;;;;;;;6208012;23;20626;-73
2023/01/09 05:16:30;;;;;;;5.33;2.70;;;;;;;;;;6180879;23;20223;-73
2023/01/09 05:18:56;;;;;;;6.67;2.90;;;;;;;;;;6177416;23;20515;-73
2023/01/09 05:21:24;;;;;;;9.00;3.53;;;;;;;;;;6178965;23;20383;-73
2023/01/09 05:23:49;;;;;;;7.23;2.60;;;;;;;;;;6207880;23;20171;-74
2023/01/09 05:26:15;;;;;;;8.80;3.10;;;;;;;;;;6182221;23;20386;-73
2023/01/09 05:28:40;;;;;;;7.17;2.40;;;;;;;;;;6181784;23;20508;-74
2023/01/09 05:31:05;;;;;;;6.53;2.50;;;;;;;;;;6203064;23;20198;-76
2023/01/09 05:33:30;;;;;;;8.40;2.73;;;;;;;;;;6180620;23;20302;-74
2023/01/09 05:35:56;;;;;;;5.20;2.60;;;;;;;;;;6206150;23;20523;-73
2023/01/09 05:38:21;;;;;;;5.50;2.37;;;;;;;;;;6182436;23;20549;-77
2023/01/09 05:40:46;;;;;;;6.20;2.47;;;;;;;;;;6208768;23;20152;-73
2023/01/09 05:43:11;;;;;;;4.33;2.50;;;;;;;;;;6181394;23;20324;-73
2023/01/09 05:45:37;;;;;;;4.60;2.40;;;;;;;;;;6206716;23;20179;-74
2023/01/09 05:48:02;;;;;;;6.80;3.13;;;;;;;;;;6205095;23;20198;-74
2023/01/09 05:50:27;;;;;;;8.77;3.20;;;;;;;;;;6206570;23;20599;-74
2023/01/09 05:52:53;;;;;;;7.07;3.03;;;;;;;;;;6207301;23;20626;-74
2023/01/09 05:55:18;;;;;;;5.67;3.23;;;;;;;;;;6204514;23;20140;-74
2023/01/09 05:57:43;;;;;;;6.03;3.23;;;;;;;;;;6207453;23;20590;-73
2023/01/09 06:00:09;;;;;;;8.50;3.33;;;;;;;;;;6181155;23;20156;-74
2023/01/09 06:02:34;;;;;;;10.40;3.40;;;;;;;;;;6182904;23;20156;-76
2023/01/09 06:05:00;;;;;;;9.30;4.40;;;;;;;;;;6208095;23;20371;-75
2023/01/09 06:07:25;;;;;;;6.00;3.73;;;;;;;;;;6182845;23;20175;-77
2023/01/09 06:09:50;;;;;;;6.90;4.00;;;;;;;;;;6182903;23;20155;-75
2023/01/09 06:12:15;;;;;;;7.60;4.27;;;;;;;;;;6209211;23;20575;-76
2023/01/09 06:14:41;;;;;;;7.53;5.10;;;;;;;;;;6207799;23;20160;-75
2023/01/09 06:17:06;;;;;;;9.33;5.37;;;;;;;;;;6209032;23;20147;-76
2023/01/09 06:19:31;;;;;;;14.10;5.80;;;;;;;;;;6183399;23;20666;-75
2023/01/09 06:21:56;;;;;;;12.43;5.70;;;;;;;;;;6181493;23;20152;-76
2023/01/09 06:24:22;;;;;;;8.13;5.50;;;;;;;;;;6182868;23;20242;-75
2023/01/09 06:26:47;;;;;;;9.30;6.00;;;;;;;;;;6206300;23;20526;-75
2023/01/09 06:29:14;;;;;;;9.10;6.00;;;;;;;;;;6177222;23;20183;-75
2023/01/09 06:31:39;;;;;;;9.07;6.50;;;;;;;;;;6182282;23;20148;-76
2023/01/09 06:34:04;;;;;;;12.27;6.73;;;;;;;;;;6209064;23;20489;-75
2023/01/09 06:36:30;;;;;;;10.40;7.40;;;;;;;;;;6207622;23;20144;-75
2023/01/09 06:38:55;;;;;;;8.20;6.80;;;;;;;;;;6181201;23;20160;-75
2023/01/09 06:41:20;;;;;;;12.90;7.87;;;;;;;;;;6206839;23;20174;-75
2023/01/09 06:43:46;;;;;;;13.90;7.90;;;;;;;;;;6203455;23;21014;-76
2023/01/09 06:46:11;;;;;;;11.80;7.97;;;;;;;;;;6206056;23;20469;-75
2023/01/09 06:48:36;;;;;;;13.27;8.83;;;;;;;;;;6206318;23;20171;-75
2023/01/09 06:51:02;;;;;;;14.33;8.90;;;;;;;;;;6207438;23;20140;-74
2023/01/09 06:53:27;;;;;;;12.77;9.60;;;;;;;;;;6180913;23;20647;-74
2023/01/09 06:55:53;;;;;;;13.27;10.00;;;;;;;;;;6202589;23;20140;-74
2023/01/09 06:58:19;;;;;;;12.40;9.30;;;;;;;;;;6205225;23;20485;-74
2023/01/09 07:00:44;;;;;;;14.43;9.80;;;;;;;;;;6178509;23;20156;-76
2023/01/09 07:03:10;;;;;;;17.63;10.03;;;;;;;;;;6206942;23;20421;-74
2023/01/09 07:05:40;;;;;;;17.27;10.80;;;;;;;;;;6180646;23;20163;-74
2023/01/09 07:08:06;;;;;;;11.97;10.27;;;;;;;;;;6208570;23;20175;-74
2023/01/09 07:10:31;;;;;;;14.23;10.90;;;;;;;;;;6184234;23;20490;-74
2023/01/09 07:12:56;;;;;;;13.63;10.50;;;;;;;;;;6209850;23;20641;-74
2023/01/09 07:15:22;;;;;;;14.27;9.90;;;;;;;;;;6206295;23;20144;-73
2023/01/09 07:17:48;;;;;;;16.20;10.03;;;;;;;;;;6208967;23;20152;-74
2023/01/09 07:20:13;;;;;;;13.33;9.90;;;;;;;;;;6204452;23;20151;-74
2023/01/09 07:22:38;;;;;;;17.20;11.17;;;;;;;;;;6205172;23;20275;-74
2023/01/09 07:25:04;;;;;;;11.77;10.00;;;;;;;;;;6212036;23;20186;-74
2023/01/09 07:27:29;;;;;;;11.27;9.30;;;;;;;;;;6179047;23;20176;-75
2023/01/09 07:29:54;;;;;;;17.67;9.37;;;;;;;;;;6204531;23;20478;-76
2023/01/09 07:32:20;;;;;;;14.93;9.27;;;;;;;;;;6208896;23;20193;-75
2023/01/09 07:34:45;;;;;;;15.57;9.03;;;;;;;;;;6182314;23;20183;-76
2023/01/09 07:37:10;;;;;;;13.47;8.53;;;;;;;;;;6210596;23;20477;-75
2023/01/09 07:39:35;;;;;;;12.13;9.23;;;;;;;;;;6210252;23;20750;-75
2023/01/09 07:42:01;;;;;;;13.93;8.87;;;;;;;;;;6210997;23;20163;-75
2023/01/09 07:44:26;;;;;;;16.13;8.83;;;;;;;;;;6204503;23;20597;-75
2023/01/09 07:46:51;;;;;;;12.77;8.90;;;;;;;;;;6208448;23;20152;-75
2023/01/09 07:49:17;;;;;;;14.47;8.87;;;;;;;;;;6207288;23;20218;-76
2023/01/09 07:51:43;;;;;;;15.87;9.10;;;;;;;;;;6206903;23;20144;-75
2023/01/09 07:54:09;;;;;;;13.00;8.60;;;;;;;;;;6183530;23;20199;-75
2023/01/09 07:56:34;;;;;;;12.93;9.10;;;;;;;;;;6209900;23;20371;-75
2023/01/09 07:59:00;;;;;;;12.90;9.10;;;;;;;;;;6180522;23;20516;-75
2023/01/09 08:01:25;;;;;;;16.03;8.97;;;;;;;;;;6206372;23;20625;-75
2023/01/09 08:03:50;;;;;;;14.40;9.00;;;;;;;;;;6209626;23;20168;-75
2023/01/09 08:06:16;;;;;;;12.17;8.50;;;;;;;;;;6209565;23;20162;-75
2023/01/09 08:08:42;;;;;;;11.73;8.10;;;;;;;;;;6210741;23;20175;-75
2023/01/09 08:11:07;;;;;;;13.00;8.77;;;;;;;;;;6180669;23;20156;-74
2023/01/09 08:13:32;;;;;;;11.43;7.77;;;;;;;;;;6210772;23;20565;-75
2023/01/09 08:15:58;;;;;;;9.50;6.93;;;;;;;;;;6178334;23;20258;-74
2023/01/09 08:18:23;;;;;;;11.07;6.87;;;;;;;;;;6207452;23;20274;-75
2023/01/09 08:20:48;;;;;;;11.97;6.90;;;;;;;;;;6182839;23;20156;-75
2023/01/09 08:23:13;;;;;;;12.27;7.40;;;;;;;;;;6205464;23;20168;-75
2023/01/09 08:25:39;;;;;;;9.53;7.87;;;;;;;;;;6204350;23;20602;-75
2023/01/09 08:28:04;;;;;;;12.80;7.57;;;;;;;;;;6179402;23;20218;-75
2023/01/09 08:30:29;;;;;;;10.20;7.70;;;;;;;;;;6208487;23;20436;-74
2023/01/09 08:32:55;;;;;;;7.70;6.90;;;;;;;;;;6206837;23;20168;-75
2023/01/09 08:35:20;;;;;;;11.23;7.17;;;;;;;;;;6180501;23;20231;-75
2023/01/09 08:37:46;;;;;;;16.43;7.70;;;;;;;;;;6206495;23;20610;-75
2023/01/09 08:40:12;;;;;;;11.77;6.37;;;;;;;;;;6209068;23;20151;-75
2023/01/09 08:48:06;;;;;;;11.07;5.97;;;;;;;;;;6205402;23;20446;-75
2023/01/09 08:50:31;;;;;;;11.60;5.63;;;;;;;;;;6181836;23;20379;-74
2023/01/09 08:52:56;;;;;;;11.90;5.50;;;;;;;;;;6184296;23;20945;-74
2023/01/09 08:55:22;;;;;;;10.20;5.27;;;;;;;;;;6211618;23;20136;-75
2023/01/09 08:57:48;;;;;;;8.30;5.20;;;;;;;;;;6207754;23;20155;-74
2023/01/09 09:00:14;;;;;;;9.60;5.70;;;;;;;;;;6178784;23;20545;-74
2023/01/09 09:02:39;;;;;;;8.20;5.27;;;;;;;;;;6176844;23;20390;-75
2023/01/09 09:05:05;;;;;;;8.70;4.70;;;;;;;;;;6210134;23;20148;-75
2023/01/09 09:07:30;;;;;;;15.80;5.23;;;;;;;;;;6206217;23;20250;-75
2023/01/09 09:09:55;;;;;;;8.67;4.50;;;;;;;;;;6205832;23;20147;-75
2023/01/09 09:12:21;;;;;;;7.50;4.37;;;;;;;;;;6204977;23;20822;-75
2023/01/09 09:17:31;;;;;;;8.17;4.27;;;;;;;;;;6201699;23;20198;-74
2023/01/09 09:19:57;;;;;;;7.80;3.97;;;;;;;;;;6181826;23;20383;-75
2023/01/09 09:22:22;;;;;;;8.47;4.70;;;;;;;;;;6181462;23;20728;-74
2023/01/09 09:24:47;;;;;;;8.30;4.00;;;;;;;;;;6208309;23;20350;-74
2023/01/09 09:27:13;;;;;;;10.30;4.13;;;;;;;;;;6176657;23;20528;-74
2023/01/09 09:29:38;;;;;;;4.20;3.50;;;;;;;;;;6176747;23;20689;-74
2023/01/09 09:32:03;;;;;;;5.30;4.00;;;;;;;;;;6179545;23;20148;-72
2023/01/09 09:34:29;;;;;;;9.00;3.60;;;;;;;;;;6209670;23;20167;-73
2023/01/09 09:36:54;;;;;;;5.60;3.30;;;;;;;;;;6179614;23;20178;-73
2023/01/09 09:39:19;;;;;;;7.37;3.20;;;;;;;;;;6207349;23;20163;-73
2023/01/09 09:44:42;;;;;;;4.93;3.20;;;;;;;;;;6206461;23;20183;-73
2023/01/09 09:47:26;;;;;;;5.80;3.57;;;;;;;;;;6206867;23;20381;-73
2023/01/09 09:50:14;;;;;;;5.77;2.97;;;;;;;;;;6210269;23;20421;-73
2023/01/09 09:52:39;;;;;;;8.10;3.60;;;;;;;;;;6149563;23;20375;-73
2023/01/09 09:55:12;;;;;;;7.30;3.80;;;;;;;;;;6208381;23;20440;-73
2023/01/09 09:57:37;;;;;;;8.47;3.57;;;;;;;;;;6179009;23;20151;-73
2023/01/09 10:00:04;;;;;;;9.47;2.97;;;;;;;;;;6209149;23;20375;-73
2023/01/09 10:02:42;;;;;;;7.03;3.20;;;;;;;;;;6207479;23;20155;-74
2023/01/09 10:05:33;;;;;;;5.60;3.30;;;;;;;;;;6209788;23;20383;-74
2023/01/09 10:08:04;;;;;;;5.07;2.90;;;;;;;;;;6201159;23;20513;-73
2023/01/09 10:10:36;;;;;;;7.97;2.80;;;;;;;;;;6204877;23;20799;-74
2023/01/09 10:14:03;;;;;;;7.10;3.20;;;;;;;;;;6181890;23;20395;-73
2023/01/09 10:15:58;;;;;;;4.63;2.70;;;;;;;;;;6207508;23;20379;-73
2023/01/09 10:18:59;;;;;;;9.20;2.50;;;;;;;;;;6204277;23;20390;-73
2023/01/09 10:21:24;;;;;;;5.73;2.70;;;;;;;;;;6084915;23;20386;-74
2023/01/09 10:23:50;;;;;;;4.77;2.53;;;;;;;;;;6184923;23;20727;-74
2023/01/09 10:26:27;;;;;;;8.37;3.10;;;;;;;;;;6203717;23;20148;-74
2023/01/09 10:28:55;;;;;;;5.93;2.33;;;;;;;;;;6182268;23;20622;-74
2023/01/09 10:31:33;;;;;;;5.40;2.40;;;;;;;;;;6208865;23;20403;-73
2023/01/09 10:34:04;;;;;;;4.60;2.50;;;;;;;;;;6210840;23;20379;-73
2023/01/09 10:36:54;;;;;;;3.80;2.03;;;;;;;;;;6185980;23;20409;-72
2023/01/09 10:39:22;;;;;;;7.13;2.67;;;;;;;;;;6184881;23;20727;-75
2023/01/09 10:42:06;;;;;;;4.57;2.50;;;;;;;;;;6184584;23;20379;-75
2023/01/09 10:44:37;;;;;;;4.70;2.57;;;;;;;;;;6208242;23;20414;-74
2023/01/09 10:47:05;;;;;;;6.27;3.30;;;;;;;;;;6185590;23;20402;-74
2023/01/09 10:49:30;;;;;;;5.73;2.87;;;;;;;;;;6209839;23;20695;-75
2023/01/09 10:51:56;;;;;;;5.37;2.23;;;;;;;;;;6212202;23;20355;-74
2023/01/09 10:54:22;;;;;;;6.63;2.90;;;;;;;;;;6212339;23;20210;-74
2023/01/09 10:56:50;;;;;;;7.67;2.40;;;;;;;;;;6185243;23;20148;-74
2023/01/09 10:59:16;;;;;;;6.17;2.90;;;;;;;;;;6206840;23;20887;-74
2023/01/09 11:01:42;;;;;;;4.90;3.07;;;;;;;;;;6180468;23;20375;-74
2023/01/09 11:04:20;;;;;;;7.63;3.30;;;;;;;;;;6180447;23;20172;-74
2023/01/09 11:06:47;;;;;;;8.50;2.63;;;;;;;;;;6183857;23;20721;-74
2023/01/09 11:09:13;;;;;;;8.67;3.03;;;;;;;;;;6210157;23;20415;-74
2023/01/09 11:11:41;;;;;;;5.30;2.67;;;;;;;;;;6184872;23;20718;-74
2023/01/09 11:14:13;;;;;;;4.00;2.47;;;;;;;;;;6212198;23;20406;-74
2023/01/09 11:16:49;;;;;;;4.40;2.20;;;;;;;;;;6182525;23;20382;-74
2023/01/09 11:19:14;;;;;;;6.67;2.90;;;;;;;;;;6210642;23;20371;-74
2023/01/09 11:21:40;;;;;;;5.63;2.50;;;;;;;;;;6210612;23;20374;-74
2023/01/09 11:24:18;;;;;;;4.63;2.50;;;;;;;;;;6183406;23;20180;-74
2023/01/09 11:26:53;;;;;;;4.83;2.50;;;;;;;;;;6210954;23;21021;-74
2023/01/09 11:29:20;;;;;;;5.60;2.60;;;;;;;;;;6209948;23;20414;-74
2023/01/09 11:31:56;;;;;;;7.47;2.80;;;;;;;;;;6183408;23;20414;-74
2023/01/09 11:34:22;;;;;;;6.53;2.57;;;;;;;;;;6184165;23;20877;-74
2023/01/09 11:36:49;;;;;;;4.50;2.60;;;;;;;;;;6185091;23;20379;-74
2023/01/09 11:39:22;;;;;;;3.53;2.30;;;;;;;;;;6181532;23;20386;-74
2023/01/09 11:41:51;;;;;;;8.10;2.90;;;;;;;;;;6185771;23;21216;-74
2023/01/09 11:44:16;;;;;;;3.80;2.30;;;;;;;;;;6180059;23;20387;-74
2023/01/09 11:46:43;;;;;;;7.07;2.63;;;;;;;;;;6204898;23;20453;-73
2023/01/09 11:49:12;;;;;;;5.63;2.50;;;;;;;;;;6181283;23;20179;-74
2023/01/09 11:51:37;;;;;;;4.50;2.30;;;;;;;;;;6184768;23;20379;-73
2023/01/09 11:54:06;;;;;;;5.97;2.20;;;;;;;;;;6210018;23;20464;-73
2023/01/09 11:56:31;;;;;;;7.73;2.57;;;;;;;;;;6180964;23;20148;-73
2023/01/09 11:58:57;;;;;;;7.60;2.57;;;;;;;;;;6184586;23;20385;-72
2023/01/09 12:01:26;;;;;;;4.63;2.10;;;;;;;;;;6210027;23;20226;-73
2023/01/09 12:03:51;;;;;;;5.33;2.20;;;;;;;;;;6182820;23;20716;-74
2023/01/09 12:06:29;;;;;;;6.90;2.80;;;;;;;;;;6208296;23;20370;-74
2023/01/09 12:08:57;;;;;;;4.80;2.17;;;;;;;;;;6204013;23;20166;-74
2023/01/09 12:11:28;;;;;;;4.93;2.47;;;;;;;;;;6201379;23;20368;-74
2023/01/09 12:14:02;;;;;;;5.80;2.47;;;;;;;;;;6206768;23;20383;-74
2023/01/09 12:16:27;;;;;;;7.23;2.60;;;;;;;;;;6206150;23;20359;-74
2023/01/09 12:18:58;;;;;;;8.13;2.63;;;;;;;;;;6204036;23;20385;-74
2023/01/09 12:21:31;;;;;;;5.07;2.30;;;;;;;;;;6208736;23;20152;-74
2023/01/09 12:24:22;;;;;;;6.87;2.30;;;;;;;;;;6209988;23;20383;-74
2023/01/09 12:26:53;;;;;;;5.57;2.27;;;;;;;;;;6163115;23;20383;-74
2023/01/09 12:29:57;;;;;;;5.00;2.23;;;;;;;;;;6182122;23;20415;-74
2023/01/09 12:32:28;;;;;;;7.07;2.70;;;;;;;;;;6085960;23;20492;-74
2023/01/09 12:34:58;;;;;;;6.23;2.77;;;;;;;;;;6113853;23;20382;-73
2023/01/09 12:37:42;;;;;;;7.20;2.43;;;;;;;;;;6175870;23;20398;-74
2023/01/09 12:40:22;;;;;;;8.60;2.50;;;;;;;;;;6209866;23;20837;-74
2023/01/09 12:42:59;;;;;;;10.60;2.80;;;;;;;;;;6210207;23;20916;-74
2023/01/09 12:45:31;;;;;;;4.63;2.07;;;;;;;;;;6206460;23;20818;-74
2023/01/09 12:48:11;;;;;;;4.17;2.27;;;;;;;;;;6206606;23;20415;-74
2023/01/09 12:50:54;;;;;;;7.87;3.33;;;;;;;;;;6208888;23;20371;-74
2023/01/09 12:53:24;;;;;;;2.97;2.53;;;;;;;;;;6183806;23;20497;-74
2023/01/09 12:55:54;;;;;;;3.73;2.50;;;;;;;;;;6181282;23;20379;-74
2023/01/09 12:58:28;;;;;;;6.00;2.50;;;;;;;;;;6204909;23;20370;-74
2023/01/09 13:00:54;;;;;;;3.70;2.60;;;;;;;;;;6180710;23;20371;-74
2023/01/09 13:03:31;;;;;;;5.03;2.67;;;;;;;;;;6206229;23;20504;-74
2023/01/09 13:05:56;;;;;;;3.87;2.60;;;;;;;;;;6208071;23;20358;-74
2023/01/09 13:08:25;;;;;;;4.60;2.10;;;;;;;;;;6205771;23;20419;-74
2023/01/09 13:11:10;;;;;;;4.33;2.17;;;;;;;;;;6207667;23;20175;-74
2023/01/09 13:13:46;;;;;;;3.90;2.83;;;;;;;;;;6207454;23;20741;-74
2023/01/09 13:16:14;;;;;;;6.63;2.43;;;;;;;;;;6179643;23;20462;-74
2023/01/09 13:18:43;;;;;;;4.73;2.37;;;;;;;;;;6208196;23;20378;-74
2023/01/09 13:21:11;;;;;;;5.93;2.40;;;;;;;;;;6210067;23;20370;-74
2023/01/09 13:23:58;;;;;;;5.30;2.53;;;;;;;;;;6180435;23;20434;-74
2023/01/09 13:26:26;;;;;;;5.00;2.83;;;;;;;;;;6210601;23;20367;-74
2023/01/09 13:28:59;;;;;;;6.90;3.40;;;;;;;;;;6207908;23;20419;-74
2023/01/09 13:31:36;;;;;;;6.00;3.67;;;;;;;;;;6180697;23;20375;-74
2023/01/09 13:34:03;;;;;;;5.70;3.50;;;;;;;;;;6209503;23;20466;-74
2023/01/09 13:36:31;;;;;;;5.07;3.37;;;;;;;;;;6183408;23;20403;-74
2023/01/09 13:38:58;;;;;;;3.83;3.10;;;;;;;;;;6183152;23;20474;-74
2023/01/09 13:44:28;;;;;;;6.27;3.27;;;;;;;;;;6209903;23;20533;-74
2023/01/09 13:46:55;;;;;;;4.93;3.20;;;;;;;;;;6208176;23;20394;-73
2023/01/09 13:49:28;;;;;;;6.80;3.40;;;;;;;;;;6182799;23;20426;-72
2023/01/09 13:51:57;;;;;;;6.87;3.30;;;;;;;;;;6209051;23;20901;-72
2023/01/09 13:54:41;;;;;;;5.33;3.23;;;;;;;;;;6179796;23;20463;-72
2023/01/09 13:57:24;;;;;;;9.03;3.80;;;;;;;;;;6204944;23;20417;-73
2023/01/09 13:59:49;;;;;;;7.30;3.50;;;;;;;;;;6178303;23;20398;-73
2023/01/09 14:02:33;;;;;;;7.40;3.90;;;;;;;;;;6184174;23;20849;-73
2023/01/09 14:04:58;;;;;;;6.50;3.70;;;;;;;;;;6184281;23;20155;-72
2023/01/09 14:07:27;;;;;;;5.50;3.57;;;;;;;;;;6207442;23;20371;-72
2023/01/09 14:09:58;;;;;;;6.33;3.53;;;;;;;;;;6208772;23;20140;-73
2023/01/09 14:12:23;;;;;;;4.90;3.40;;;;;;;;;;6210993;23;20450;-73
2023/01/09 14:14:50;;;;;;;11.93;3.63;;;;;;;;;;6183163;23;20410;-72
2023/01/09 14:17:25;;;;;;;8.73;4.03;;;;;;;;;;6209773;23;20405;-72
2023/01/09 14:19:55;;;;;;;6.63;4.00;;;;;;;;;;6183931;23;20375;-72
2023/01/09 14:22:25;;;;;;;6.37;3.30;;;;;;;;;;6184504;23;20382;-72
2023/01/09 14:24:52;;;;;;;9.60;4.27;;;;;;;;;;6209709;23;20371;-72
2023/01/09 14:27:36;;;;;;;3.77;3.40;;;;;;;;;;6182537;23;20382;-72
2023/01/09 14:30:20;;;;;;;4.83;3.30;;;;;;;;;;6182833;23;20371;-72
2023/01/09 14:32:54;;;;;;;10.73;3.90;;;;;;;;;;6210694;23;20383;-72
2023/01/09 14:35:23;;;;;;;6.10;3.70;;;;;;;;;;6183326;23;20368;-72
2023/01/09 14:37:55;;;;;;;8.70;4.20;;;;;;;;;;6208201;23;20692;-72
2023/01/09 14:40:22;;;;;;;5.90;4.40;;;;;;;;;;6208465;23;20774;-72
2023/01/09 14:42:50;;;;;;;4.53;3.90;;;;;;;;;;6180951;23;20581;-73
2023/01/09 14:45:20;;;;;;;6.17;3.87;;;;;;;;;;6209054;23;20370;-72
2023/01/09 14:47:47;;;;;;;10.43;4.77;;;;;;;;;;6183367;23;20426;-72
2023/01/09 14:50:16;;;;;;;5.20;4.27;;;;;;;;;;6206061;23;20370;-73
2023/01/09 14:52:44;;;;;;;6.27;4.43;;;;;;;;;;6204387;23;20363;-72
2023/01/09 14:55:17;;;;;;;7.73;5.13;;;;;;;;;;6210554;23;20348;-73
2023/01/09 14:57:42;;;;;;;5.53;4.30;;;;;;;;;;6206344;23;20371;-73
2023/01/09 15:00:13;;;;;;;9.43;4.90;;;;;;;;;;6210576;23;20468;-73
2023/01/09 15:02:40;;;;;;;7.27;4.90;;;;;;;;;;6210255;23;20587;-73
2023/01/09 15:05:08;;;;;;;5.80;4.60;;;;;;;;;;6184047;23;20463;-72